sensor_id;sensor_type;location;lat;lon;timestamp;temperature;humidity
52643;DHT22;38531;53.296;6.614;2022-07-06T00:03:53;14.60;99.90
52643;DHT22;38531;53.296;6.614;2022-07-06T00:06:36;14.60;99.90
52643;DHT22;38531;53.296;6.614;2022-07-06T00:09:49;14.20;99.90
52643;DHT22;38531;53.296;6.614;2022-07-06T00:12:23;14.60;99.90
52643;DHT22;38531;53.296;6.614;2022-07-06T00:15:06;14.70;99.90
52643;DHT22;38531;53.296;6.614;2022-07-06T00:18:12;14.50;99.90
52643;DHT22;38531;53.296;6.614;2022-07-06T00:21:10;14.50;99.90
52643;DHT22;38531;53.296;6.614;2022-07-06T00:23:50;14.50;99.90
52643;DHT22;38531;53.296;6.614;2022-07-06T00:26:44;14.60;99.90
52643;DHT22;38531;53.296;6.614;2022-07-06T00:36:57;14.40;99.90
52643;DHT22;38531;53.296;6.614;2022-07-06T00:40:05;14.40;99.90
52643;DHT22;38531;53.296;6.614;2022-07-06T00:42:56;14.40;99.90
52643;DHT22;38531;53.296;6.614;2022-07-06T00:53:31;14.30;99.90
52643;DHT22;38531;53.296;6.614;2022-07-06T00:56:29;14.30;99.90
52643;DHT22;38531;53.296;6.614;2022-07-06T00:59:07;15.10;99.90
52643;DHT22;38531;53.296;6.614;2022-07-06T01:01:45;14.30;99.90
52643;DHT22;38531;53.296;6.614;2022-07-06T01:04:32;14.30;99.90
52643;DHT22;38531;53.296;6.614;2022-07-06T01:10:34;14.30;99.90
52643;DHT22;38531;53.296;6.614;2022-07-06T01:19:55;14.30;99.90
52643;DHT22;38531;53.296;6.614;2022-07-06T01:22:54;15.00;99.90
52643;DHT22;38531;53.296;6.614;2022-07-06T01:26:01;14.30;99.90
52643;DHT22;38531;53.296;6.614;2022-07-06T01:35:19;14.20;99.90
52643;DHT22;38531;53.296;6.614;2022-07-06T01:42:13;14.00;99.90
52643;DHT22;38531;53.296;6.614;2022-07-06T01:45:00;14.20;99.90
52643;DHT22;38531;53.296;6.614;2022-07-06T01:47:52;14.10;99.90
52643;DHT22;38531;53.296;6.614;2022-07-06T01:53:47;14.20;99.90
52643;DHT22;38531;53.296;6.614;2022-07-06T02:07:56;14.20;99.90
52643;DHT22;38531;53.296;6.614;2022-07-06T02:11:25;14.10;99.90
52643;DHT22;38531;53.296;6.614;2022-07-06T02:14:27;14.10;99.90
52643;DHT22;38531;53.296;6.614;2022-07-06T02:20:59;14.10;99.90
52643;DHT22;38531;53.296;6.614;2022-07-06T02:24:00;14.00;99.90
52643;DHT22;38531;53.296;6.614;2022-07-06T02:26:49;13.90;99.90
52643;DHT22;38531;53.296;6.614;2022-07-06T02:29:44;14.60;99.90
52643;DHT22;38531;53.296;6.614;2022-07-06T02:35:50;13.70;99.90
52643;DHT22;38531;53.296;6.614;2022-07-06T02:38:58;13.60;99.90
52643;DHT22;38531;53.296;6.614;2022-07-06T02:41:45;13.50;99.90
52643;DHT22;38531;53.296;6.614;2022-07-06T02:44:22;13.50;99.90
52643;DHT22;38531;53.296;6.614;2022-07-06T02:47:40;13.00;99.90
52643;DHT22;38531;53.296;6.614;2022-07-06T02:50:22;13.30;99.90
52643;DHT22;38531;53.296;6.614;2022-07-06T02:53:28;13.40;99.90
52643;DHT22;38531;53.296;6.614;2022-07-06T02:56:25;13.40;99.90
52643;DHT22;38531;53.296;6.614;2022-07-06T02:59:19;12.60;99.90
52643;DHT22;38531;53.296;6.614;2022-07-06T03:02:24;12.90;99.90
52643;DHT22;38531;53.296;6.614;2022-07-06T03:04:53;12.90;99.90
52643;DHT22;38531;53.296;6.614;2022-07-06T03:11:15;13.00;99.90
52643;DHT22;38531;53.296;6.614;2022-07-06T03:13:49;13.00;99.90
52643;DHT22;38531;53.296;6.614;2022-07-06T03:16:33;12.90;99.90
52643;DHT22;38531;53.296;6.614;2022-07-06T03:19:47;13.10;99.90
52643;DHT22;38531;53.296;6.614;2022-07-06T03:22:37;12.70;99.90
52643;DHT22;38531;53.296;6.614;2022-07-06T03:25:25;13.00;99.90
52643;DHT22;38531;53.296;6.614;2022-07-06T03:28:18;12.80;99.90
52643;DHT22;38531;53.296;6.614;2022-07-06T03:31:37;12.70;99.90
52643;DHT22;38531;53.296;6.614;2022-07-06T03:37:25;12.70;99.90
52643;DHT22;38531;53.296;6.614;2022-07-06T03:40:19;12.60;99.90
52643;DHT22;38531;53.296;6.614;2022-07-06T03:50:28;12.50;99.90
52643;DHT22;38531;53.296;6.614;2022-07-06T03:56:34;12.40;99.90
52643;DHT22;38531;53.296;6.614;2022-07-06T03:59:43;12.40;99.90
52643;DHT22;38531;53.296;6.614;2022-07-06T04:02:44;12.30;99.90
52643;DHT22;38531;53.296;6.614;2022-07-06T04:05:37;12.50;99.90
52643;DHT22;38531;53.296;6.614;2022-07-06T04:08:40;11.60;99.90
52643;DHT22;38531;53.296;6.614;2022-07-06T04:11:38;12.30;99.90
52643;DHT22;38531;53.296;6.614;2022-07-06T04:14:38;12.00;99.90
52643;DHT22;38531;53.296;6.614;2022-07-06T04:22:16;12.40;99.90
52643;DHT22;38531;53.296;6.614;2022-07-06T04:25:19;12.50;99.90
52643;DHT22;38531;53.296;6.614;2022-07-06T04:31:40;12.60;99.90
52643;DHT22;38531;53.296;6.614;2022-07-06T04:40:25;12.60;99.90
52643;DHT22;38531;53.296;6.614;2022-07-06T04:43:02;12.70;99.90
52643;DHT22;38531;53.296;6.614;2022-07-06T04:53:24;12.80;99.90
52643;DHT22;38531;53.296;6.614;2022-07-06T04:58:57;12.90;99.90
52643;DHT22;38531;53.296;6.614;2022-07-06T05:01:31;13.00;99.90
52643;DHT22;38531;53.296;6.614;2022-07-06T05:04:05;13.30;99.90
52643;DHT22;38531;53.296;6.614;2022-07-06T05:06:47;13.20;99.90
52643;DHT22;38531;53.296;6.614;2022-07-06T05:09:44;13.30;99.90
52643;DHT22;38531;53.296;6.614;2022-07-06T05:13:24;13.00;99.90
52643;DHT22;38531;53.296;6.614;2022-07-06T05:20:38;13.20;99.90
52643;DHT22;38531;53.296;6.614;2022-07-06T05:23:52;14.30;99.90
52643;DHT22;38531;53.296;6.614;2022-07-06T05:26:34;13.80;99.90
52643;DHT22;38531;53.296;6.614;2022-07-06T05:37:02;14.10;99.90
52643;DHT22;38531;53.296;6.614;2022-07-06T05:44:13;14.20;99.90
52643;DHT22;38531;53.296;6.614;2022-07-06T05:50:19;14.90;99.90
52643;DHT22;38531;53.296;6.614;2022-07-06T05:53:41;14.90;99.90
52643;DHT22;38531;53.296;6.614;2022-07-06T06:00:17;15.20;99.90
52643;DHT22;38531;53.296;6.614;2022-07-06T06:10:56;15.60;99.90
52643;DHT22;38531;53.296;6.614;2022-07-06T06:21:45;15.40;99.90
52643;DHT22;38531;53.296;6.614;2022-07-06T06:24:11;15.50;99.90
52643;DHT22;38531;53.296;6.614;2022-07-06T06:26:37;15.50;99.90
52643;DHT22;38531;53.296;6.614;2022-07-06T06:29:03;15.50;99.90
52643;DHT22;38531;53.296;6.614;2022-07-06T06:31:28;15.60;99.90
52643;DHT22;38531;53.296;6.614;2022-07-06T06:33:57;15.60;99.90
52643;DHT22;38531;53.296;6.614;2022-07-06T06:36:23;15.80;99.90
52643;DHT22;38531;53.296;6.614;2022-07-06T06:38:51;15.70;99.90
52643;DHT22;38531;53.296;6.614;2022-07-06T06:41:17;15.90;99.90
52643;DHT22;38531;53.296;6.614;2022-07-06T06:43:46;15.80;99.90
52643;DHT22;38531;53.296;6.614;2022-07-06T06:46:11;15.80;99.90
52643;DHT22;38531;53.296;6.614;2022-07-06T06:48:37;15.80;99.90
52643;DHT22;38531;53.296;6.614;2022-07-06T06:51:04;15.80;99.90
52643;DHT22;38531;53.296;6.614;2022-07-06T06:53:30;15.90;99.90
52643;DHT22;38531;53.296;6.614;2022-07-06T06:55:55;16.00;99.90
52643;DHT22;38531;53.296;6.614;2022-07-06T06:58:21;16.20;99.90
52643;DHT22;38531;53.296;6.614;2022-07-06T07:00:47;16.50;99.90
52643;DHT22;38531;53.296;6.614;2022-07-06T07:03:13;16.80;99.90
52643;DHT22;38531;53.296;6.614;2022-07-06T07:05:39;17.10;99.90
52643;DHT22;38531;53.296;6.614;2022-07-06T07:08:05;17.40;99.90
52643;DHT22;38531;53.296;6.614;2022-07-06T07:10:33;17.50;99.90
52643;DHT22;38531;53.296;6.614;2022-07-06T07:12:59;17.60;99.90
52643;DHT22;38531;53.296;6.614;2022-07-06T07:15:25;17.60;99.90
52643;DHT22;38531;53.296;6.614;2022-07-06T07:17:50;17.30;99.90
52643;DHT22;38531;53.296;6.614;2022-07-06T07:20:42;17.30;99.90
52643;DHT22;38531;53.296;6.614;2022-07-06T07:23:08;17.30;99.90
52643;DHT22;38531;53.296;6.614;2022-07-06T07:25:53;17.50;99.90
52643;DHT22;38531;53.296;6.614;2022-07-06T07:28:22;17.80;99.90
52643;DHT22;38531;53.296;6.614;2022-07-06T07:35:34;18.00;99.90
52643;DHT22;38531;53.296;6.614;2022-07-06T07:38:08;17.90;99.90
52643;DHT22;38531;53.296;6.614;2022-07-06T07:40:34;17.70;99.90
52643;DHT22;38531;53.296;6.614;2022-07-06T07:43:04;18.00;99.90
52643;DHT22;38531;53.296;6.614;2022-07-06T07:45:39;18.00;99.90
52643;DHT22;38531;53.296;6.614;2022-07-06T07:48:05;18.10;99.90
52643;DHT22;38531;53.296;6.614;2022-07-06T07:50:31;18.20;99.90
52643;DHT22;38531;53.296;6.614;2022-07-06T07:52:57;18.30;99.90
52643;DHT22;38531;53.296;6.614;2022-07-06T07:55:23;18.40;99.90
52643;DHT22;38531;53.296;6.614;2022-07-06T07:57:48;18.40;99.90
52643;DHT22;38531;53.296;6.614;2022-07-06T08:00:14;18.50;99.90
52643;DHT22;38531;53.296;6.614;2022-07-06T08:02:40;18.70;99.90
52643;DHT22;38531;53.296;6.614;2022-07-06T08:05:06;18.80;99.90
52643;DHT22;38531;53.296;6.614;2022-07-06T08:07:35;18.90;99.90
52643;DHT22;38531;53.296;6.614;2022-07-06T08:10:01;18.90;99.90
52643;DHT22;38531;53.296;6.614;2022-07-06T08:12:26;19.00;99.90
52643;DHT22;38531;53.296;6.614;2022-07-06T08:14:52;19.10;99.90
52643;DHT22;38531;53.296;6.614;2022-07-06T08:17:18;19.20;99.90
52643;DHT22;38531;53.296;6.614;2022-07-06T08:19:43;19.10;99.90
52643;DHT22;38531;53.296;6.614;2022-07-06T08:22:09;19.10;99.90
52643;DHT22;38531;53.296;6.614;2022-07-06T08:24:35;19.10;99.90
52643;DHT22;38531;53.296;6.614;2022-07-06T08:27:01;19.20;99.90
52643;DHT22;38531;53.296;6.614;2022-07-06T08:29:28;19.30;99.90
52643;DHT22;38531;53.296;6.614;2022-07-06T08:31:54;19.40;99.90
52643;DHT22;38531;53.296;6.614;2022-07-06T08:34:20;19.50;99.90
52643;DHT22;38531;53.296;6.614;2022-07-06T08:36:46;19.50;99.90
52643;DHT22;38531;53.296;6.614;2022-07-06T08:39:12;19.30;99.90
52643;DHT22;38531;53.296;6.614;2022-07-06T08:41:41;19.40;99.90
52643;DHT22;38531;53.296;6.614;2022-07-06T08:44:07;19.40;99.90
52643;DHT22;38531;53.296;6.614;2022-07-06T08:46:40;19.70;99.90
52643;DHT22;38531;53.296;6.614;2022-07-06T08:49:07;19.70;99.00
52643;DHT22;38531;53.296;6.614;2022-07-06T08:51:35;19.80;99.60
52643;DHT22;38531;53.296;6.614;2022-07-06T08:54:27;19.90;98.50
52643;DHT22;38531;53.296;6.614;2022-07-06T08:57:00;20.00;99.50
52643;DHT22;38531;53.296;6.614;2022-07-06T09:09:36;20.10;99.90
52643;DHT22;38531;53.296;6.614;2022-07-06T09:12:02;20.20;99.20
52643;DHT22;38531;53.296;6.614;2022-07-06T09:14:37;20.30;99.70
52643;DHT22;38531;53.296;6.614;2022-07-06T09:17:06;20.40;99.90
52643;DHT22;38531;53.296;6.614;2022-07-06T09:19:36;20.50;99.90
52643;DHT22;38531;53.296;6.614;2022-07-06T09:22:02;20.70;98.90
52643;DHT22;38531;53.296;6.614;2022-07-06T09:24:41;20.50;99.30
52643;DHT22;38531;53.296;6.614;2022-07-06T09:27:17;20.60;99.80
52643;DHT22;38531;53.296;6.614;2022-07-06T09:29:45;20.60;99.30
52643;DHT22;38531;53.296;6.614;2022-07-06T09:32:11;20.50;99.20
52643;DHT22;38531;53.296;6.614;2022-07-06T09:35:00;20.50;99.70
52643;DHT22;38531;53.296;6.614;2022-07-06T09:37:30;20.30;99.70
52643;DHT22;38531;53.296;6.614;2022-07-06T09:39:56;20.50;99.60
52643;DHT22;38531;53.296;6.614;2022-07-06T09:42:25;20.50;99.80
52643;DHT22;38531;53.296;6.614;2022-07-06T09:44:51;20.60;99.90
52643;DHT22;38531;53.296;6.614;2022-07-06T09:47:21;20.60;99.90
52643;DHT22;38531;53.296;6.614;2022-07-06T09:49:49;20.50;99.90
52643;DHT22;38531;53.296;6.614;2022-07-06T09:52:37;20.80;99.70
52643;DHT22;38531;53.296;6.614;2022-07-06T09:55:17;20.80;99.90
52643;DHT22;38531;53.296;6.614;2022-07-06T09:57:52;20.70;99.90
52643;DHT22;38531;53.296;6.614;2022-07-06T10:00:19;20.40;99.90
52643;DHT22;38531;53.296;6.614;2022-07-06T10:02:46;20.60;99.90
52643;DHT22;38531;53.296;6.614;2022-07-06T10:05:14;20.40;99.90
52643;DHT22;38531;53.296;6.614;2022-07-06T10:07:45;20.70;99.90
52643;DHT22;38531;53.296;6.614;2022-07-06T10:10:12;20.70;99.20
52643;DHT22;38531;53.296;6.614;2022-07-06T10:12:40;20.70;99.80
52643;DHT22;38531;53.296;6.614;2022-07-06T10:15:07;20.80;99.10
52643;DHT22;38531;53.296;6.614;2022-07-06T10:17:37;20.80;99.00
52643;DHT22;38531;53.296;6.614;2022-07-06T10:20:05;21.00;99.90
52643;DHT22;38531;53.296;6.614;2022-07-06T10:22:31;21.30;99.00
52643;DHT22;38531;53.296;6.614;2022-07-06T10:24:58;21.30;99.60
52643;DHT22;38531;53.296;6.614;2022-07-06T10:27:25;21.40;99.60
52643;DHT22;38531;53.296;6.614;2022-07-06T10:29:53;21.70;99.90
52643;DHT22;38531;53.296;6.614;2022-07-06T10:32:20;22.00;99.00
52643;DHT22;38531;53.296;6.614;2022-07-06T10:34:46;22.00;98.70
52643;DHT22;38531;53.296;6.614;2022-07-06T10:37:24;22.20;99.20
52643;DHT22;38531;53.296;6.614;2022-07-06T10:39:51;22.20;99.10
52643;DHT22;38531;53.296;6.614;2022-07-06T10:42:42;22.40;97.80
52643;DHT22;38531;53.296;6.614;2022-07-06T10:45:10;22.50;98.00
52643;DHT22;38531;53.296;6.614;2022-07-06T10:47:36;22.70;97.90
52643;DHT22;38531;53.296;6.614;2022-07-06T10:50:03;23.00;96.80
52643;DHT22;38531;53.296;6.614;2022-07-06T10:52:51;23.20;95.60
52643;DHT22;38531;53.296;6.614;2022-07-06T10:55:33;23.20;97.10
52643;DHT22;38531;53.296;6.614;2022-07-06T10:58:00;23.40;95.50
52643;DHT22;38531;53.296;6.614;2022-07-06T11:06:08;23.20;96.00
52643;DHT22;38531;53.296;6.614;2022-07-06T11:13:54;23.20;94.20
52643;DHT22;38531;53.296;6.614;2022-07-06T11:16:21;23.10;94.30
52643;DHT22;38531;53.296;6.614;2022-07-06T11:19:12;23.30;94.00
52643;DHT22;38531;53.296;6.614;2022-07-06T11:21:52;23.70;93.50
52643;DHT22;38531;53.296;6.614;2022-07-06T11:24:21;23.90;91.60
52643;DHT22;38531;53.296;6.614;2022-07-06T11:26:49;23.80;92.70
52643;DHT22;38531;53.296;6.614;2022-07-06T11:29:17;23.70;93.60
52643;DHT22;38531;53.296;6.614;2022-07-06T11:31:45;23.90;94.10
52643;DHT22;38531;53.296;6.614;2022-07-06T11:34:12;23.90;93.50
52643;DHT22;38531;53.296;6.614;2022-07-06T11:36:40;23.90;93.10
52643;DHT22;38531;53.296;6.614;2022-07-06T11:39:06;24.10;93.60
52643;DHT22;38531;53.296;6.614;2022-07-06T11:41:33;24.40;93.50
52643;DHT22;38531;53.296;6.614;2022-07-06T11:43:58;24.60;92.40
52643;DHT22;38531;53.296;6.614;2022-07-06T11:46:32;24.90;92.60
52643;DHT22;38531;53.296;6.614;2022-07-06T11:49:00;25.10;92.60
52643;DHT22;38531;53.296;6.614;2022-07-06T11:51:28;25.20;91.20
52643;DHT22;38531;53.296;6.614;2022-07-06T11:53:57;25.50;91.40
52643;DHT22;38531;53.296;6.614;2022-07-06T11:56:27;25.50;90.40
52643;DHT22;38531;53.296;6.614;2022-07-06T11:58:56;25.20;89.90
52643;DHT22;38531;53.296;6.614;2022-07-06T12:01:24;25.10;89.90
52643;DHT22;38531;53.296;6.614;2022-07-06T12:03:50;25.30;91.30
52643;DHT22;38531;53.296;6.614;2022-07-06T12:06:22;25.50;90.80
52643;DHT22;38531;53.296;6.614;2022-07-06T12:08:53;25.20;90.50
52643;DHT22;38531;53.296;6.614;2022-07-06T12:11:25;25.50;85.90
52643;DHT22;38531;53.296;6.614;2022-07-06T12:13:53;25.00;87.00
52643;DHT22;38531;53.296;6.614;2022-07-06T12:16:20;24.50;89.00
52643;DHT22;38531;53.296;6.614;2022-07-06T12:18:48;24.40;90.50
52643;DHT22;38531;53.296;6.614;2022-07-06T12:21:17;24.50;89.00
52643;DHT22;38531;53.296;6.614;2022-07-06T12:23:49;24.60;85.80
52643;DHT22;38531;53.296;6.614;2022-07-06T12:26:17;24.70;90.10
52643;DHT22;38531;53.296;6.614;2022-07-06T12:28:44;24.60;89.30
52643;DHT22;38531;53.296;6.614;2022-07-06T12:31:11;24.40;89.90
52643;DHT22;38531;53.296;6.614;2022-07-06T12:33:37;24.60;87.20
52643;DHT22;38531;53.296;6.614;2022-07-06T12:36:14;24.20;90.10
52643;DHT22;38531;53.296;6.614;2022-07-06T12:38:47;24.10;90.20
52643;DHT22;38531;53.296;6.614;2022-07-06T12:41:33;24.10;90.50
52643;DHT22;38531;53.296;6.614;2022-07-06T12:44:08;24.40;89.90
52643;DHT22;38531;53.296;6.614;2022-07-06T12:55:45;23.80;90.10
52643;DHT22;38531;53.296;6.614;2022-07-06T13:03:48;23.00;90.90
52643;DHT22;38531;53.296;6.614;2022-07-06T13:06:33;22.80;91.70
52643;DHT22;38531;53.296;6.614;2022-07-06T13:09:02;22.70;91.70
52643;DHT22;38531;53.296;6.614;2022-07-06T13:11:30;22.60;91.40
52643;DHT22;38531;53.296;6.614;2022-07-06T13:13:59;22.60;92.10
52643;DHT22;38531;53.296;6.614;2022-07-06T13:16:25;22.60;92.70
52643;DHT22;38531;53.296;6.614;2022-07-06T13:18:56;22.70;93.30
52643;DHT22;38531;53.296;6.614;2022-07-06T13:24:35;22.90;91.50
52643;DHT22;38531;53.296;6.614;2022-07-06T13:27:01;23.00;91.20
52643;DHT22;38531;53.296;6.614;2022-07-06T13:29:27;22.70;91.90
52643;DHT22;38531;53.296;6.614;2022-07-06T13:31:53;22.60;92.50
52643;DHT22;38531;53.296;6.614;2022-07-06T13:34:19;22.60;92.50
52643;DHT22;38531;53.296;6.614;2022-07-06T13:36:44;22.60;92.30
52643;DHT22;38531;53.296;6.614;2022-07-06T13:39:10;22.50;91.80
52643;DHT22;38531;53.296;6.614;2022-07-06T13:41:36;22.40;91.10
52643;DHT22;38531;53.296;6.614;2022-07-06T13:44:02;22.30;91.80
52643;DHT22;38531;53.296;6.614;2022-07-06T13:46:29;22.20;91.90
52643;DHT22;38531;53.296;6.614;2022-07-06T14:13:40;21.10;93.50
52643;DHT22;38531;53.296;6.614;2022-07-06T14:16:06;21.00;92.80
52643;DHT22;38531;53.296;6.614;2022-07-06T14:18:53;20.90;93.00
52643;DHT22;38531;53.296;6.614;2022-07-06T14:21:18;20.80;93.50
52643;DHT22;38531;53.296;6.614;2022-07-06T14:23:44;20.70;93.70
52643;DHT22;38531;53.296;6.614;2022-07-06T14:26:10;20.70;93.60
52643;DHT22;38531;53.296;6.614;2022-07-06T14:28:36;20.50;94.00
52643;DHT22;38531;53.296;6.614;2022-07-06T14:31:01;20.40;94.60
52643;DHT22;38531;53.296;6.614;2022-07-06T14:33:31;20.40;94.10
52643;DHT22;38531;53.296;6.614;2022-07-06T14:35:59;20.30;94.30
52643;DHT22;38531;53.296;6.614;2022-07-06T14:38:26;20.30;94.80
52643;DHT22;38531;53.296;6.614;2022-07-06T14:40:53;20.30;94.90
52643;DHT22;38531;53.296;6.614;2022-07-06T14:43:19;20.20;95.70
52643;DHT22;38531;53.296;6.614;2022-07-06T14:45:45;20.20;96.00
52643;DHT22;38531;53.296;6.614;2022-07-06T14:48:12;19.90;95.40
52643;DHT22;38531;53.296;6.614;2022-07-06T14:50:38;20.20;95.80
52643;DHT22;38531;53.296;6.614;2022-07-06T14:53:04;19.80;96.30
52643;DHT22;38531;53.296;6.614;2022-07-06T14:55:30;19.80;96.60
52643;DHT22;38531;53.296;6.614;2022-07-06T14:57:56;19.80;97.00
52643;DHT22;38531;53.296;6.614;2022-07-06T15:00:21;19.80;97.00
52643;DHT22;38531;53.296;6.614;2022-07-06T15:02:47;19.70;98.60
52643;DHT22;38531;53.296;6.614;2022-07-06T15:05:13;19.60;99.40
52643;DHT22;38531;53.296;6.614;2022-07-06T15:07:39;19.50;99.90
52643;DHT22;38531;53.296;6.614;2022-07-06T15:10:05;19.40;99.90
52643;DHT22;38531;53.296;6.614;2022-07-06T15:12:31;19.20;99.90
52643;DHT22;38531;53.296;6.614;2022-07-06T15:14:57;19.10;99.90
52643;DHT22;38531;53.296;6.614;2022-07-06T15:17:23;19.00;99.90
52643;DHT22;38531;53.296;6.614;2022-07-06T15:19:49;18.80;99.90
52643;DHT22;38531;53.296;6.614;2022-07-06T15:22:17;18.70;99.90
52643;DHT22;38531;53.296;6.614;2022-07-06T15:24:52;18.60;99.90
52643;DHT22;38531;53.296;6.614;2022-07-06T15:27:18;18.50;99.90
52643;DHT22;38531;53.296;6.614;2022-07-06T15:32:14;18.40;99.90
52643;DHT22;38531;53.296;6.614;2022-07-06T15:34:40;18.20;99.90
52643;DHT22;38531;53.296;6.614;2022-07-06T15:37:05;18.20;99.90
52643;DHT22;38531;53.296;6.614;2022-07-06T15:39:31;18.20;99.90
52643;DHT22;38531;53.296;6.614;2022-07-06T15:41:57;18.30;99.90
52643;DHT22;38531;53.296;6.614;2022-07-06T15:44:23;18.30;99.90
52643;DHT22;38531;53.296;6.614;2022-07-06T15:46:49;18.30;99.90
52643;DHT22;38531;53.296;6.614;2022-07-06T15:49:15;18.30;99.90
52643;DHT22;38531;53.296;6.614;2022-07-06T15:51:45;18.30;99.90
52643;DHT22;38531;53.296;6.614;2022-07-06T15:57:49;18.10;99.90
52643;DHT22;38531;53.296;6.614;2022-07-06T16:00:16;18.00;99.90
52643;DHT22;38531;53.296;6.614;2022-07-06T16:03:03;17.80;99.90
52643;DHT22;38531;53.296;6.614;2022-07-06T16:05:31;17.70;99.90
52643;DHT22;38531;53.296;6.614;2022-07-06T16:11:28;17.50;99.90
52643;DHT22;38531;53.296;6.614;2022-07-06T16:13:56;17.50;99.90
52643;DHT22;38531;53.296;6.614;2022-07-06T16:16:25;17.20;99.90
52643;DHT22;38531;53.296;6.614;2022-07-06T16:19:23;17.20;99.90
52643;DHT22;38531;53.296;6.614;2022-07-06T16:24:23;17.10;99.90
52643;DHT22;38531;53.296;6.614;2022-07-06T16:26:49;17.00;99.90
52643;DHT22;38531;53.296;6.614;2022-07-06T16:29:16;17.00;99.90
52643;DHT22;38531;53.296;6.614;2022-07-06T16:31:42;17.00;99.90
52643;DHT22;38531;53.296;6.614;2022-07-06T16:37:34;16.90;99.90
52643;DHT22;38531;53.296;6.614;2022-07-06T16:40:00;16.60;99.90
52643;DHT22;38531;53.296;6.614;2022-07-06T16:42:26;16.80;99.90
52643;DHT22;38531;53.296;6.614;2022-07-06T16:44:52;16.70;99.90
52643;DHT22;38531;53.296;6.614;2022-07-06T16:47:18;16.70;99.90
52643;DHT22;38531;53.296;6.614;2022-07-06T16:49:43;16.60;99.90
52643;DHT22;38531;53.296;6.614;2022-07-06T16:52:10;16.60;99.90
52643;DHT22;38531;53.296;6.614;2022-07-06T16:54:35;16.20;99.90
52643;DHT22;38531;53.296;6.614;2022-07-06T16:57:04;16.60;99.90
52643;DHT22;38531;53.296;6.614;2022-07-06T16:59:30;16.60;99.90
52643;DHT22;38531;53.296;6.614;2022-07-06T17:01:56;16.50;99.90
52643;DHT22;38531;53.296;6.614;2022-07-06T17:04:28;16.50;99.90
52643;DHT22;38531;53.296;6.614;2022-07-06T17:06:53;16.50;99.90
52643;DHT22;38531;53.296;6.614;2022-07-06T17:09:19;16.70;99.90
52643;DHT22;38531;53.296;6.614;2022-07-06T17:11:45;16.40;99.90
52643;DHT22;38531;53.296;6.614;2022-07-06T17:14:14;16.40;99.90
52643;DHT22;38531;53.296;6.614;2022-07-06T17:16:39;16.30;99.90
52643;DHT22;38531;53.296;6.614;2022-07-06T17:22:46;16.20;99.90
52643;DHT22;38531;53.296;6.614;2022-07-06T17:25:11;16.30;99.90
52643;DHT22;38531;53.296;6.614;2022-07-06T17:27:37;16.20;99.90
52643;DHT22;38531;53.296;6.614;2022-07-06T17:30:03;16.20;99.90
52643;DHT22;38531;53.296;6.614;2022-07-06T17:39:51;16.10;99.90
52643;DHT22;38531;53.296;6.614;2022-07-06T17:42:17;16.20;99.90
52643;DHT22;38531;53.296;6.614;2022-07-06T17:44:46;16.00;99.90
52643;DHT22;38531;53.296;6.614;2022-07-06T17:50:24;16.00;99.90
52643;DHT22;38531;53.296;6.614;2022-07-06T17:52:50;16.00;99.90
52643;DHT22;38531;53.296;6.614;2022-07-06T17:55:16;16.00;99.90
52643;DHT22;38531;53.296;6.614;2022-07-06T17:57:42;16.00;99.90
52643;DHT22;38531;53.296;6.614;2022-07-06T18:00:08;16.00;99.90
52643;DHT22;38531;53.296;6.614;2022-07-06T18:02:34;16.00;99.90
52643;DHT22;38531;53.296;6.614;2022-07-06T18:05:00;16.00;99.90
52643;DHT22;38531;53.296;6.614;2022-07-06T18:07:26;16.30;99.90
52643;DHT22;38531;53.296;6.614;2022-07-06T18:09:52;16.00;99.90
52643;DHT22;38531;53.296;6.614;2022-07-06T18:12:20;15.90;99.90
52643;DHT22;38531;53.296;6.614;2022-07-06T18:14:46;15.90;99.90
52643;DHT22;38531;53.296;6.614;2022-07-06T18:17:12;15.90;99.90
52643;DHT22;38531;53.296;6.614;2022-07-06T18:19:38;15.90;99.90
52643;DHT22;38531;53.296;6.614;2022-07-06T18:22:04;15.90;99.90
52643;DHT22;38531;53.296;6.614;2022-07-06T18:24:30;15.90;99.90
52643;DHT22;38531;53.296;6.614;2022-07-06T18:26:56;15.90;99.90
52643;DHT22;38531;53.296;6.614;2022-07-06T18:29:22;15.90;99.90
52643;DHT22;38531;53.296;6.614;2022-07-06T18:31:48;15.90;99.90
52643;DHT22;38531;53.296;6.614;2022-07-06T18:34:14;15.70;99.90
52643;DHT22;38531;53.296;6.614;2022-07-06T18:36:40;15.80;99.90
52643;DHT22;38531;53.296;6.614;2022-07-06T18:39:06;15.80;99.90
52643;DHT22;38531;53.296;6.614;2022-07-06T18:41:32;15.80;99.90
52643;DHT22;38531;53.296;6.614;2022-07-06T18:43:58;15.80;99.90
52643;DHT22;38531;53.296;6.614;2022-07-06T18:46:24;15.80;99.90
52643;DHT22;38531;53.296;6.614;2022-07-06T18:48:50;15.50;99.90
52643;DHT22;38531;53.296;6.614;2022-07-06T18:51:16;15.80;99.90
52643;DHT22;38531;53.296;6.614;2022-07-06T18:53:41;15.80;99.90
52643;DHT22;38531;53.296;6.614;2022-07-06T18:56:07;15.40;99.90
52643;DHT22;38531;53.296;6.614;2022-07-06T18:58:45;15.80;99.90
52643;DHT22;38531;53.296;6.614;2022-07-06T19:01:14;15.80;99.90
52643;DHT22;38531;53.296;6.614;2022-07-06T19:03:40;15.80;99.90
52643;DHT22;38531;53.296;6.614;2022-07-06T19:06:07;15.90;99.90
52643;DHT22;38531;53.296;6.614;2022-07-06T19:08:32;15.80;99.90
52643;DHT22;38531;53.296;6.614;2022-07-06T19:10:58;15.80;99.90
52643;DHT22;38531;53.296;6.614;2022-07-06T19:13:24;15.90;99.90
52643;DHT22;38531;53.296;6.614;2022-07-06T19:15:49;15.80;99.90
52643;DHT22;38531;53.296;6.614;2022-07-06T19:18:15;15.80;99.90
52643;DHT22;38531;53.296;6.614;2022-07-06T19:20:41;15.90;99.90
52643;DHT22;38531;53.296;6.614;2022-07-06T19:23:07;15.90;99.90
52643;DHT22;38531;53.296;6.614;2022-07-06T19:25:32;15.90;99.90
52643;DHT22;38531;53.296;6.614;2022-07-06T19:27:58;15.90;99.90
52643;DHT22;38531;53.296;6.614;2022-07-06T19:30:24;15.90;99.90
52643;DHT22;38531;53.296;6.614;2022-07-06T19:32:49;16.00;99.90
52643;DHT22;38531;53.296;6.614;2022-07-06T19:35:15;16.00;99.90
52643;DHT22;38531;53.296;6.614;2022-07-06T19:37:41;16.00;99.90
52643;DHT22;38531;53.296;6.614;2022-07-06T19:40:07;16.00;99.90
52643;DHT22;38531;53.296;6.614;2022-07-06T19:42:33;16.00;99.90
52643;DHT22;38531;53.296;6.614;2022-07-06T19:44:59;16.00;99.90
52643;DHT22;38531;53.296;6.614;2022-07-06T19:47:25;16.00;99.90
52643;DHT22;38531;53.296;6.614;2022-07-06T19:49:50;16.00;99.90
52643;DHT22;38531;53.296;6.614;2022-07-06T19:52:45;15.80;99.90
52643;DHT22;38531;53.296;6.614;2022-07-06T19:55:11;16.00;99.90
52643;DHT22;38531;53.296;6.614;2022-07-06T19:57:37;16.00;99.90
52643;DHT22;38531;53.296;6.614;2022-07-06T20:00:04;16.00;99.90
52643;DHT22;38531;53.296;6.614;2022-07-06T20:02:30;16.10;99.90
52643;DHT22;38531;53.296;6.614;2022-07-06T20:04:56;16.10;99.90
52643;DHT22;38531;53.296;6.614;2022-07-06T20:07:22;16.00;99.90
52643;DHT22;38531;53.296;6.614;2022-07-06T20:09:47;16.10;99.90